Airfield :
LOGIN :

Register | Disclaimer

   EN    FR    IT 

 










Legend :    VFR   Marginal VFR   IFR   Intensive IFR   Very Intensive IFR
Visi :
Ceiling :
>= 8 km
>= 3000ft
5 to 8 km
1000 to 3000 ft
1500m to 5 km
500 to 1000 ft
800 to 1500m
200 to 500 ft
< 800m
< 200 ft
Symbols :   Thunderstorms  Fog  Heavy snow  Heavy precipitations  Wind > 20 kt
SIGMETs :     Misc.  Thunderstorms  Icing  Turbulence  Mountain Waves  Volcanic Ashes






- Airport Elevation : 31 ft
- IATA code : INV


EGPE - Inverness

CURRENT METAR :
  • 101250Z 21014KT 180V240 9999 -RA FEW012 SCT023 BKN033 13/09 Q0977

EXPIRED METARs :
  • 101220Z 21016G27KT 9999 -RA FEW012 SCT024 13/09 Q0977
  • 101150Z 20011KT 9999 -RA FEW015 SCT039 12/08 Q0979
  • 101120Z 21013KT 9999 -RA FEW015 SCT040 12/08 Q0980
  • 101050Z 20015KT 9999 FEW015 SCT037 12/07 Q0981
  • 101020Z 21017G30KT 9999 FEW015 SCT040 12/07 Q0982

TAF TAF EGPE
Valid from the 10 at 12:00 until the 10 at 21:00 UTC


101102Z 1012/1021 22015G25KT 9999 FEW025
PROB40
TEMPO 1012/1021 25025G35KT 7000 RA SHRA BKN014
ATIS : +44 1667 464 255



MET'MAP, your aeronautical weather chart ! - Copyright ORBIFLY December 2007 - Disclaimer

ORBIFLY MET'MAP TEAM :

Programming & Development : Alexandra Zaïnal
Concept & original design : Baudouin d'Aumeries
Assistance for programming : Marc-Olivier Méhu
Technical & hardware support : Manuel Goepfert

Contact : metmap@orbifly.com




SOURCES & CREDITS :

   NOAA